메인 페이지
METAR-TAF:

METAR-TAF

공항 :

Retalhuleu, 과테말라

위도: 14-32N, 경도: 091-40W, 고도: 239m

현재 날씨관측

예보는 9 시간 41분 전, 00:00시(UTC)에 발표되었습니다.
무풍
온도 28°C
습도 94%
기압 1011 hPa
시정: 8000m
고도 2000ft 상공 구름 조금
고도 9000ft 상공 흐림
박무,

METAR: MGRT 260000Z 00000KT 8000 FEW020 OVC090 28/27 Q1011 A2985 BR VOL. STA MARIA Y SANTIAGUITO EN ACTIVIDAD

시각: 03:41 (09:41 UTC)


TAF: 누락

4,000개 이상의 공항 관측 자료 및 예보 (METAR 및 TAF 보고).

지도상에서 검색 가능한 기상관측소가 노란 점과 빨간 점으로 표시되어 있습니다.

기상관측소 명을 보려면 표시 위로 마우스를 이동하세요.

날씨 관측과 예보를 보려면 클릭하세요.

지도 변경 : 확대하려면 엑스 표시가 있는 녹색 버튼, 축소하려면 빼기 표시가 있는 녹색 버튼, 다음 페이지의 지도를 보려면 녹색 화살표를 클릭하세요.


METAR-TAF: